Greene County Airport


Codes: KWAY/WAY
Name: Greene County Airport
City: Waynesburg
Country: United States
Elevation: 1069 ft.
Wikipedia:

Photos at Greene County Airport


   Photos courtesy of SpottingLog. You can add your own sightings and photos by signing up for a free trial today.



No photos found.

Weather at Greene County Airport


Time (UTC)DescriptionTempratureWindCloud coverageVisibilityPressureHumidity
23-May-2024 21:00Light Rain24°C4 mph, W87%10000m1014hPa66%
24-May-2024 00:00Light Rain21°C2 mph, NW77%10000m1013hPa81%
24-May-2024 03:00Light Rain16°C2 mph, NE100%10000m1013hPa95%
24-May-2024 06:00Light Rain16°C2 mph, SW100%10000m1013hPa97%
24-May-2024 09:00Light Rain15°C2 mph, SE100%10000m1013hPa98%
24-May-2024 12:00Light Rain17°C2 mph, SE88%10000m1013hPa97%
24-May-2024 15:00Light Rain22°C4 mph, SW67%10000m1013hPa78%
24-May-2024 18:00Light Rain24°C2 mph, W76%10000m1011hPa66%
24-May-2024 21:00Light Rain25°C2 mph, N60%10000m1011hPa61%
25-May-2024 00:00Light Rain21°C2 mph, SE75%10000m1011hPa83%
25-May-2024 03:00Overcast Clouds17°C2 mph, SW100%10000m1011hPa94%
25-May-2024 06:00Overcast Clouds16°C2 mph, S100%10000m1011hPa96%
25-May-2024 09:00Overcast Clouds16°C4 mph, S100%10000m1011hPa98%
25-May-2024 12:00Overcast Clouds18°C7 mph, S100%10000m1012hPa93%
25-May-2024 15:00Light Rain24°C9 mph, SW89%10000m1010hPa69%
25-May-2024 18:00Light Rain27°C9 mph, SW84%10000m1009hPa55%
25-May-2024 21:00Light Rain24°C11 mph, W100%10000m1009hPa79%
26-May-2024 00:00Moderate Rain20°C7 mph, NW84%10000m1011hPa94%
26-May-2024 03:00Light Rain18°C4 mph, NW0%10000m1012hPa98%
26-May-2024 06:00Clear Sky13°C2 mph, N2%10000m1013hPa93%
26-May-2024 09:00Scattered Clouds11°C2 mph, N41%10000m1013hPa94%
26-May-2024 12:00Broken Clouds15°C4 mph, NE57%10000m1014hPa93%
26-May-2024 15:00Broken Clouds22°C4 mph, E53%10000m1013hPa57%
26-May-2024 18:00Scattered Clouds27°C2 mph, S33%10000m1011hPa45%
26-May-2024 21:00Overcast Clouds26°C2 mph, N100%10000m1007hPa65%
27-May-2024 00:00Light Rain20°C0 mph, E100%10000m1007hPa93%
27-May-2024 03:00Moderate Rain18°C4 mph, SE100%5306m1008hPa99%
27-May-2024 06:00Heavy Intensity Rain18°C13 mph, S100%5884m1006hPa98%
27-May-2024 09:00Moderate Rain18°C9 mph, S100%10000m1005hPa99%
27-May-2024 12:00Overcast Clouds20°C11 mph, SW100%10000m1006hPa97%
27-May-2024 15:00Light Rain25°C13 mph, SW100%10000m1006hPa71%
27-May-2024 18:00Light Rain28°C13 mph, SW68%10000m1005hPa53%
27-May-2024 21:00Clear Sky28°C11 mph, W1%10000m1004hPa46%
28-May-2024 00:00Scattered Clouds23°C9 mph, W29%10000m1005hPa69%
28-May-2024 03:00Light Rain16°C11 mph, W38%10000m1008hPa92%
28-May-2024 06:00Scattered Clouds14°C9 mph, W37%10000m1009hPa95%
28-May-2024 09:00Scattered Clouds12°C9 mph, SW34%10000m1010hPa94%
28-May-2024 12:00Few Clouds14°C9 mph, W18%10000m1013hPa85%
28-May-2024 15:00Clear Sky19°C9 mph, W0%10000m1013hPa56%
28-May-2024 18:00Clear Sky22°C9 mph, NW0%10000m1012hPa44%